Sw Julia I — 3EDT2 — position and weather

sailwx.info

Track history (hours):
 
Tides and Currents Weather Stations Pressure Air Temp Water Temp Dewpoint Dewpoint Depression Visibility Wind Speed Wind Dir Waves Ship Positions

Sw Julia I

Last reported at 2018-Jan-24 12:00 UTC. Time now 2018-Jan-24 12:06 UTC.
Position N 51°05' E 001°49'.

Length 176 m; draft 7 m.

Type: Ship. MMSI: 374125000.

Date/timePositionNaut miles runAvg speedWind from/ knotsBaromVisibWave heightAir tempDewpointWater temp
2018-Jan-24 12:00N 51°05' E 001°49'0 0.2
2018-Jan-24 11:30N 51°05' E 001°49'0 0.2
2018-Jan-24 11:00N 51°05' E 001°49'0 0.1
2018-Jan-24 10:30N 51°05' E 001°49'0 0.0
2018-Jan-24 10:00N 51°05' E 001°49'0 0.1
2018-Jan-24 09:30N 51°05' E 001°49'0 0.1
2018-Jan-24 08:57N 51°05' E 001°49'0 0.1
2018-Jan-24 08:30N 51°05' E 001°49'0 0.1
2018-Jan-24 08:00N 51°05' E 001°49'1 2.9
2018-Jan-24 07:30N 51°03' E 001°50'510.2
2018-Jan-24 07:00N 51°03' E 001°58'611.8
2018-Jan-24 06:30N 51°03' E 002°08'612.1
2018-Jan-24 06:00N 51°04' E 002°17'2 2.8
2018-Jan-24 05:18N 51°03' E 002°20'0 0.8
2018-Jan-24 04:59N 51°03' E 002°20'2 4.4
2018-Jan-24 04:30N 51°03' E 002°17'1 1.4
2018-Jan-24 03:55N 51°02' E 002°16'0 0.0
2018-Jan-24 03:25N 51°02' E 002°16'0 0.0
2018-Jan-24 02:58N 51°02' E 002°16'0 0.0
2018-Jan-24 01:46N 51°02' E 002°16'0 0.0
2018-Jan-24 01:28N 51°02' E 002°16'0 0.0
2018-Jan-24 00:58N 51°02' E 002°16'0 0.0
2018-Jan-23 23:58N 51°02' E 002°16'0 0.0
2018-Jan-23 23:28N 51°02' E 002°16'0 0.0
2018-Jan-23 22:34N 51°02' E 002°16'0 0.0
2018-Jan-23 22:28N 51°02' E 002°16'0 0.0
2018-Jan-23 21:52N 51°02' E 002°16'0 0.0
2018-Jan-23 21:28N 51°02' E 002°16'0 0.0
2018-Jan-23 20:58N 51°02' E 002°16'0 0.0
2018-Jan-23 20:16N 51°02' E 002°16'0 0.0
2018-Jan-23 19:58N 51°02' E 002°16'0 0.0
2018-Jan-23 19:28N 51°02' E 002°16'0 0.0
2018-Jan-23 18:58N 51°02' E 002°16'0 0.0
2018-Jan-23 18:19N 51°02' E 002°16'0 0.0
2018-Jan-23 17:58N 51°02' E 002°16'0 0.0
2018-Jan-23 17:28N 51°02' E 002°16'0 0.0
2018-Jan-23 16:58N 51°02' E 002°16'0 0.0
2018-Jan-23 16:19N 51°02' E 002°16'0 0.0
2018-Jan-23 15:58N 51°02' E 002°16'0 0.0
2018-Jan-23 15:15N 51°02' E 002°16'0 0.0
2018-Jan-23 15:00N 51°02' E 002°16'0 0.0
2018-Jan-23 14:30N 51°02' E 002°16'0 0.0
2018-Jan-23 13:59N 51°02' E 002°16'0 0.0
2018-Jan-23 13:23N 51°02' E 002°16'0 0.0
2018-Jan-23 12:59N 51°02' E 002°16'0 0.0
2018-Jan-23 12:23N 51°02' E 002°16'0 0.0
2018-Jan-23 11:59N 51°02' E 002°16'0 0.0
2018-Jan-23 11:29N 51°02' E 002°16'0 0.0
2018-Jan-23 10:59N 51°02' E 002°16'0 0.0
2018-Jan-23 10:29N 51°02' E 002°16'0 0.0
2018-Jan-23 09:44N 51°02' E 002°16'0 0.0
2018-Jan-23 09:29N 51°02' E 002°16'0 0.0
2018-Jan-23 08:59N 51°02' E 002°16'0 0.0
2018-Jan-23 08:20N 51°02' E 002°16'0 0.0
2018-Jan-23 07:59N 51°02' E 002°16'0 0.0
2018-Jan-23 07:23N 51°02' E 002°16'0 0.0
2018-Jan-23 06:59N 51°02' E 002°16'0 0.0
2018-Jan-23 06:29N 51°02' E 002°16'0 0.0
2018-Jan-23 05:59N 51°02' E 002°16'0 0.0
2018-Jan-23 05:29N 51°02' E 002°16'0 0.0
2018-Jan-23 04:53N 51°02' E 002°16'0 0.0
2018-Jan-23 04:17N 51°02' E 002°16'0 0.0
2018-Jan-23 03:20N 51°02' E 002°16'0 0.0
2018-Jan-23 02:59N 51°02' E 002°16'0 0.0
2018-Jan-23 02:29N 51°02' E 002°16'0 0.0
2018-Jan-23 01:59N 51°02' E 002°16'1 1.1
2018-Jan-23 01:30N 51°03' E 002°16'3 5.1
2018-Jan-23 01:00N 51°03' E 002°20'0 0.5
2018-Jan-23 00:30N 51°03' E 002°21'1 1.3
2018-Jan-23 00:00N 51°04' E 002°21'5 8.7
2018-Jan-22 23:28N 51°04' E 002°14'612.4
2018-Jan-22 23:00N 51°03' E 002°04'611.4
2018-Jan-22 22:30N 51°02' E 001°55'511.2
2018-Jan-22 22:00N 51°02' E 001°47'510.4
2018-Jan-22 21:30N 50°60' E 001°39'510.8
2018-Jan-22 21:00N 50°56' E 001°33'511.0
2018-Jan-22 20:30N 50°52' E 001°29'612.1
2018-Jan-22 20:00N 50°46' E 001°26'4712.2
2018-Jan-22 16:09N 50°23' E 000°21'313.0
2018-Jan-22 15:55N 50°22' E 000°17'613.2
2018-Jan-22 15:30N 50°21' E 000°08'713.2
2018-Jan-22 15:00N 50°20' W 000°02'713.3
2018-Jan-22 14:29N 50°18' W 000°12'613.3
2018-Jan-22 14:00N 50°16' W 000°22'713.8
2018-Jan-22 13:30N 50°14' W 000°32'714.4
2018-Jan-22 13:00N 50°12' W 000°43'815.0
2018-Jan-22 12:29N 50°10' W 000°55'7215.5
2018-Jan-22 07:51N 49°50' W 002°42'1513.4
2018-Jan-22 06:44N 49°45' W 003°04'413.6
2018-Jan-22 06:25N 49°43' W 003°10'613.5
2018-Jan-22 06:00N 49°40' W 003°17'8012.4
2018-Jan-21 23:35N 49°00' W 005°04'112.0
2018-Jan-21 23:30N 48°60' W 005°05'712.1
2018-Jan-21 22:58N 48°57' W 005°14'612.2
2018-Jan-21 22:30N 48°54' W 005°21'712.4
2018-Jan-21 21:58N 48°51' W 005°30'51511.9
2018-Jan-20 02:39N 40°51' W 009°56'2511.5
2018-Jan-20 00:27N 40°26' W 009°57'2211.4
2018-Jan-19 22:30N 40°04' W 009°57'3911.3
2018-Jan-19 19:02N 39°25' W 009°57'111.0
2018-Jan-19 18:59N 39°24' W 009°57'511.3
2018-Jan-19 18:30N 39°19' W 009°57'611.1
2018-Jan-19 18:00N 39°13' W 009°57'611.3
2018-Jan-19 17:30N 39°08' W 009°57'611.2
2018-Jan-19 17:00N 39°02' W 009°57'511.0
2018-Jan-19 16:30N 38°57' W 009°57'611.0
2018-Jan-19 16:00N 38°51' W 009°57'510.9
2018-Jan-19 15:30N 38°46' W 009°57'510.9
2018-Jan-19 15:00N 38°40' W 009°57'510.8
2018-Jan-19 14:30N 38°35' W 009°55'510.4
2018-Jan-19 14:00N 38°30' W 009°53'510.3
2018-Jan-19 13:30N 38°25' W 009°52'510.3
2018-Jan-19 12:59N 38°20' W 009°50'510.0
2018-Jan-19 12:28N 38°15' W 009°49'510.0
2018-Jan-19 12:00N 38°10' W 009°47'5 9.8
2018-Jan-19 11:29N 38°05' W 009°46'4 9.3
2018-Jan-19 11:00N 38°01' W 009°45'8 9.9
2018-Jan-19 10:13N 37°53' W 009°42'3 9.8
2018-Jan-19 09:55N 37°50' W 009°42'4 9.6
2018-Jan-19 09:30N 37°47' W 009°40'610.0
2018-Jan-19 08:54N 37°41' W 009°39'4 9.6
2018-Jan-19 08:30N 37°37' W 009°38'65 9.7
2018-Jan-19 01:49N 36°38' W 009°03'511.4
2018-Jan-19 01:23N 36°37' W 008°57'411.5
2018-Jan-19 01:00N 36°36' W 008°52'1411.9
2018-Jan-18 23:47N 36°32' W 008°35'2312.2
2018-Jan-18 21:56N 36°27' W 008°07'1312.5
2018-Jan-18 20:55N 36°24' W 007°52'512.6
2018-Jan-18 20:30N 36°22' W 007°46'10313.4
2018-Jan-18 12:50N 35°58' W 005°42'514.3
2018-Jan-18 12:30N 35°58' W 005°36'612.7
2018-Jan-18 12:00N 36°00' W 005°29'510.7
2018-Jan-18 11:30N 36°04' W 005°24'2 4.2
2018-Jan-18 11:00N 36°06' W 005°25'0 0.0
2018-Jan-18 10:30N 36°06' W 005°25'1 1.2
2018-Jan-18 10:00N 36°06' W 005°24'3 6.9
2018-Jan-18 09:30N 36°10' W 005°24'1 1.7
2018-Jan-18 09:00N 36°11' W 005°24'0 0.0
2018-Jan-18 08:30N 36°11' W 005°24'0 0.0
2018-Jan-18 08:00N 36°11' W 005°24'0 0.0
2018-Jan-18 07:30N 36°11' W 005°24'0 0.0
2018-Jan-18 07:00N 36°11' W 005°24'0 0.0
2018-Jan-18 06:30N 36°11' W 005°24'0 0.0
2018-Jan-18 06:00N 36°11' W 005°24'0 0.0
2018-Jan-18 05:30N 36°11' W 005°24'0 0.0
2018-Jan-18 05:00N 36°11' W 005°24'0 0.0
2018-Jan-18 04:30N 36°11' W 005°24'0 0.0
2018-Jan-18 04:00N 36°11' W 005°24'0 0.0
2018-Jan-18 03:30N 36°11' W 005°24'0 0.0
2018-Jan-18 03:00N 36°11' W 005°24'0 0.0
2018-Jan-18 02:30N 36°11' W 005°24'0 0.0
2018-Jan-18 02:00N 36°11' W 005°24'0 0.0
2018-Jan-18 01:30N 36°11' W 005°24'0 0.0
2018-Jan-18 00:58N 36°11' W 005°24'0 0.0
2018-Jan-17 23:58N 36°11' W 005°24'0 0.0
2018-Jan-17 23:55N 36°11' W 005°24'  
Track history (hours):
 
Tides and Currents Weather Stations Pressure Air Temp Water Temp Dewpoint Dewpoint Depression Visibility Wind Speed Wind Dir Waves Ship Positions

Sw Julia I

Last reported at 2018-Jan-24 12:00 UTC. Time now 2018-Jan-24 12:06 UTC.
Position N 51°05' E 001°49'.

Length 176 m; draft 7 m.

Type: Ship. MMSI: 374125000.

Date/timePositionNaut miles runAvg speedWind from/ knotsBaromVisibWave heightAir tempDewpointWater temp
2018-Jan-24 12:00N 51°05' E 001°49'0 0.2
2018-Jan-24 11:30N 51°05' E 001°49'0 0.2
2018-Jan-24 11:00N 51°05' E 001°49'0 0.1
2018-Jan-24 10:30N 51°05' E 001°49'0 0.0
2018-Jan-24 10:00N 51°05' E 001°49'0 0.1
2018-Jan-24 09:30N 51°05' E 001°49'0 0.1
2018-Jan-24 08:57N 51°05' E 001°49'0 0.1
2018-Jan-24 08:30N 51°05' E 001°49'0 0.1
2018-Jan-24 08:00N 51°05' E 001°49'1 2.9
2018-Jan-24 07:30N 51°03' E 001°50'510.2
2018-Jan-24 07:00N 51°03' E 001°58'611.8
2018-Jan-24 06:30N 51°03' E 002°08'612.1
2018-Jan-24 06:00N 51°04' E 002°17'2 2.8
2018-Jan-24 05:18N 51°03' E 002°20'0 0.8
2018-Jan-24 04:59N 51°03' E 002°20'2 4.4
2018-Jan-24 04:30N 51°03' E 002°17'1 1.4
2018-Jan-24 03:55N 51°02' E 002°16'0 0.0
2018-Jan-24 03:25N 51°02' E 002°16'0 0.0
2018-Jan-24 02:58N 51°02' E 002°16'0 0.0
2018-Jan-24 01:46N 51°02' E 002°16'0 0.0
2018-Jan-24 01:28N 51°02' E 002°16'0 0.0
2018-Jan-24 00:58N 51°02' E 002°16'0 0.0
2018-Jan-23 23:58N 51°02' E 002°16'0 0.0
2018-Jan-23 23:28N 51°02' E 002°16'0 0.0
2018-Jan-23 22:34N 51°02' E 002°16'0 0.0
2018-Jan-23 22:28N 51°02' E 002°16'0 0.0
2018-Jan-23 21:52N 51°02' E 002°16'0 0.0
2018-Jan-23 21:28N 51°02' E 002°16'0 0.0
2018-Jan-23 20:58N 51°02' E 002°16'0 0.0
2018-Jan-23 20:16N 51°02' E 002°16'0 0.0
2018-Jan-23 19:58N 51°02' E 002°16'0 0.0
2018-Jan-23 19:28N 51°02' E 002°16'0 0.0
2018-Jan-23 18:58N 51°02' E 002°16'0 0.0
2018-Jan-23 18:19N 51°02' E 002°16'0 0.0
2018-Jan-23 17:58N 51°02' E 002°16'0 0.0
2018-Jan-23 17:28N 51°02' E 002°16'0 0.0
2018-Jan-23 16:58N 51°02' E 002°16'0 0.0
2018-Jan-23 16:19N 51°02' E 002°16'0 0.0
2018-Jan-23 15:58N 51°02' E 002°16'0 0.0
2018-Jan-23 15:15N 51°02' E 002°16'0 0.0
2018-Jan-23 15:00N 51°02' E 002°16'0 0.0
2018-Jan-23 14:30N 51°02' E 002°16'0 0.0
2018-Jan-23 13:59N 51°02' E 002°16'0 0.0
2018-Jan-23 13:23N 51°02' E 002°16'0 0.0
2018-Jan-23 12:59N 51°02' E 002°16'0 0.0
2018-Jan-23 12:23N 51°02' E 002°16'0 0.0
2018-Jan-23 11:59N 51°02' E 002°16'0 0.0
2018-Jan-23 11:29N 51°02' E 002°16'0 0.0
2018-Jan-23 10:59N 51°02' E 002°16'0 0.0
2018-Jan-23 10:29N 51°02' E 002°16'0 0.0
2018-Jan-23 09:44N 51°02' E 002°16'0 0.0
2018-Jan-23 09:29N 51°02' E 002°16'0 0.0
2018-Jan-23 08:59N 51°02' E 002°16'0 0.0
2018-Jan-23 08:20N 51°02' E 002°16'0 0.0
2018-Jan-23 07:59N 51°02' E 002°16'0 0.0
2018-Jan-23 07:23N 51°02' E 002°16'0 0.0
2018-Jan-23 06:59N 51°02' E 002°16'0 0.0
2018-Jan-23 06:29N 51°02' E 002°16'0 0.0
2018-Jan-23 05:59N 51°02' E 002°16'0 0.0
2018-Jan-23 05:29N 51°02' E 002°16'0 0.0
2018-Jan-23 04:53N 51°02' E 002°16'0 0.0
2018-Jan-23 04:17N 51°02' E 002°16'0 0.0
2018-Jan-23 03:20N 51°02' E 002°16'0 0.0
2018-Jan-23 02:59N 51°02' E 002°16'0 0.0
2018-Jan-23 02:29N 51°02' E 002°16'0 0.0
2018-Jan-23 01:59N 51°02' E 002°16'1 1.1
2018-Jan-23 01:30N 51°03' E 002°16'3 5.1
2018-Jan-23 01:00N 51°03' E 002°20'0 0.5
2018-Jan-23 00:30N 51°03' E 002°21'1 1.3
2018-Jan-23 00:00N 51°04' E 002°21'5 8.7
2018-Jan-22 23:28N 51°04' E 002°14'612.4
2018-Jan-22 23:00N 51°03' E 002°04'611.4
2018-Jan-22 22:30N 51°02' E 001°55'511.2
2018-Jan-22 22:00N 51°02' E 001°47'510.4
2018-Jan-22 21:30N 50°60' E 001°39'510.8
2018-Jan-22 21:00N 50°56' E 001°33'511.0
2018-Jan-22 20:30N 50°52' E 001°29'612.1
2018-Jan-22 20:00N 50°46' E 001°26'4712.2
2018-Jan-22 16:09N 50°23' E 000°21'313.0
2018-Jan-22 15:55N 50°22' E 000°17'613.2
2018-Jan-22 15:30N 50°21' E 000°08'713.2
2018-Jan-22 15:00N 50°20' W 000°02'713.3
2018-Jan-22 14:29N 50°18' W 000°12'613.3
2018-Jan-22 14:00N 50°16' W 000°22'713.8
2018-Jan-22 13:30N 50°14' W 000°32'714.4
2018-Jan-22 13:00N 50°12' W 000°43'815.0
2018-Jan-22 12:29N 50°10' W 000°55'7215.5
2018-Jan-22 07:51N 49°50' W 002°42'1513.4
2018-Jan-22 06:44N 49°45' W 003°04'413.6
2018-Jan-22 06:25N 49°43' W 003°10'613.5
2018-Jan-22 06:00N 49°40' W 003°17'8012.4
2018-Jan-21 23:35N 49°00' W 005°04'112.0
2018-Jan-21 23:30N 48°60' W 005°05'712.1
2018-Jan-21 22:58N 48°57' W 005°14'612.2
2018-Jan-21 22:30N 48°54' W 005°21'712.4
2018-Jan-21 21:58N 48°51' W 005°30'51511.9
2018-Jan-20 02:39N 40°51' W 009°56'2511.5
2018-Jan-20 00:27N 40°26' W 009°57'2211.4
2018-Jan-19 22:30N 40°04' W 009°57'3911.3
2018-Jan-19 19:02N 39°25' W 009°57'111.0
2018-Jan-19 18:59N 39°24' W 009°57'511.3
2018-Jan-19 18:30N 39°19' W 009°57'611.1
2018-Jan-19 18:00N 39°13' W 009°57'611.3
2018-Jan-19 17:30N 39°08' W 009°57'611.2
2018-Jan-19 17:00N 39°02' W 009°57'511.0
2018-Jan-19 16:30N 38°57' W 009°57'611.0
2018-Jan-19 16:00N 38°51' W 009°57'510.9
2018-Jan-19 15:30N 38°46' W 009°57'510.9
2018-Jan-19 15:00N 38°40' W 009°57'510.8
2018-Jan-19 14:30N 38°35' W 009°55'510.4
2018-Jan-19 14:00N 38°30' W 009°53'510.3
2018-Jan-19 13:30N 38°25' W 009°52'510.3
2018-Jan-19 12:59N 38°20' W 009°50'510.0
2018-Jan-19 12:28N 38°15' W 009°49'510.0
2018-Jan-19 12:00N 38°10' W 009°47'5 9.8
2018-Jan-19 11:29N 38°05' W 009°46'4 9.3
2018-Jan-19 11:00N 38°01' W 009°45'8 9.9
2018-Jan-19 10:13N 37°53' W 009°42'3 9.8
2018-Jan-19 09:55N 37°50' W 009°42'4 9.6
2018-Jan-19 09:30N 37°47' W 009°40'610.0
2018-Jan-19 08:54N 37°41' W 009°39'4 9.6
2018-Jan-19 08:30N 37°37' W 009°38'65 9.7
2018-Jan-19 01:49N 36°38' W 009°03'511.4
2018-Jan-19 01:23N 36°37' W 008°57'411.5
2018-Jan-19 01:00N 36°36' W 008°52'1411.9
2018-Jan-18 23:47N 36°32' W 008°35'2312.2
2018-Jan-18 21:56N 36°27' W 008°07'1312.5
2018-Jan-18 20:55N 36°24' W 007°52'512.6
2018-Jan-18 20:30N 36°22' W 007°46'10313.4
2018-Jan-18 12:50N 35°58' W 005°42'514.3
2018-Jan-18 12:30N 35°58' W 005°36'612.7
2018-Jan-18 12:00N 36°00' W 005°29'510.7
2018-Jan-18 11:30N 36°04' W 005°24'2 4.2
2018-Jan-18 11:00N 36°06' W 005°25'0 0.0
2018-Jan-18 10:30N 36°06' W 005°25'1 1.2
2018-Jan-18 10:00N 36°06' W 005°24'3 6.9
2018-Jan-18 09:30N 36°10' W 005°24'1 1.7
2018-Jan-18 09:00N 36°11' W 005°24'0 0.0
2018-Jan-18 08:30N 36°11' W 005°24'0 0.0
2018-Jan-18 08:00N 36°11' W 005°24'0 0.0
2018-Jan-18 07:30N 36°11' W 005°24'0 0.0
2018-Jan-18 07:00N 36°11' W 005°24'0 0.0
2018-Jan-18 06:30N 36°11' W 005°24'0 0.0
2018-Jan-18 06:00N 36°11' W 005°24'0 0.0
2018-Jan-18 05:30N 36°11' W 005°24'0 0.0
2018-Jan-18 05:00N 36°11' W 005°24'0 0.0
2018-Jan-18 04:30N 36°11' W 005°24'0 0.0
2018-Jan-18 04:00N 36°11' W 005°24'0 0.0
2018-Jan-18 03:30N 36°11' W 005°24'0 0.0
2018-Jan-18 03:00N 36°11' W 005°24'0 0.0
2018-Jan-18 02:30N 36°11' W 005°24'0 0.0
2018-Jan-18 02:00N 36°11' W 005°24'0 0.0
2018-Jan-18 01:30N 36°11' W 005°24'0 0.0
2018-Jan-18 00:58N 36°11' W 005°24'0 0.0
2018-Jan-17 23:58N 36°11' W 005°24'0 0.0
2018-Jan-17 23:55N 36°11' W 005°24'  

Dump ship's entire track history